sensor_id;sensor_type;location;lat;lon;timestamp;P1;durP1;ratioP1;P2;durP2;ratioP2
72949;SDS011;61101;45.710;9.590;2022-07-23T00:01:19;10.60;;;5.95;;
72949;SDS011;61101;45.710;9.590;2022-07-23T00:03:44;11.77;;;5.90;;
72949;SDS011;61101;45.710;9.590;2022-07-23T00:06:10;10.38;;;5.25;;
72949;SDS011;61101;45.710;9.590;2022-07-23T00:08:35;10.00;;;5.78;;
72949;SDS011;61101;45.710;9.590;2022-07-23T00:11:00;8.73;;;5.03;;
72949;SDS011;61101;45.710;9.590;2022-07-23T00:13:26;11.70;;;5.30;;
72949;SDS011;61101;45.710;9.590;2022-07-23T00:15:51;11.18;;;5.20;;
72949;SDS011;61101;45.710;9.590;2022-07-23T00:18:17;13.18;;;5.70;;
72949;SDS011;61101;45.710;9.590;2022-07-23T00:20:42;9.93;;;5.32;;
72949;SDS011;61101;45.710;9.590;2022-07-23T00:23:07;13.23;;;5.78;;
72949;SDS011;61101;45.710;9.590;2022-07-23T00:25:33;10.18;;;6.55;;
72949;SDS011;61101;45.710;9.590;2022-07-23T00:27:58;11.17;;;6.30;;
72949;SDS011;61101;45.710;9.590;2022-07-23T00:30:24;10.23;;;6.50;;
72949;SDS011;61101;45.710;9.590;2022-07-23T00:32:51;14.63;;;5.72;;
72949;SDS011;61101;45.710;9.590;2022-07-23T00:35:18;10.52;;;5.63;;
72949;SDS011;61101;45.710;9.590;2022-07-23T00:37:44;10.18;;;5.30;;
72949;SDS011;61101;45.710;9.590;2022-07-23T00:40:10;10.38;;;5.60;;
72949;SDS011;61101;45.710;9.590;2022-07-23T00:42:35;13.20;;;5.88;;
72949;SDS011;61101;45.710;9.590;2022-07-23T00:45:00;12.13;;;5.95;;
72949;SDS011;61101;45.710;9.590;2022-07-23T00:47:26;13.75;;;6.50;;
72949;SDS011;61101;45.710;9.590;2022-07-23T00:49:51;10.63;;;5.45;;
72949;SDS011;61101;45.710;9.590;2022-07-23T00:52:16;11.55;;;5.80;;
72949;SDS011;61101;45.710;9.590;2022-07-23T00:54:41;10.30;;;6.27;;
72949;SDS011;61101;45.710;9.590;2022-07-23T00:57:07;15.07;;;6.50;;
72949;SDS011;61101;45.710;9.590;2022-07-23T00:59:32;10.32;;;6.40;;
72949;SDS011;61101;45.710;9.590;2022-07-23T01:01:57;13.93;;;7.30;;
72949;SDS011;61101;45.710;9.590;2022-07-23T01:04:23;12.43;;;6.63;;
72949;SDS011;61101;45.710;9.590;2022-07-23T01:06:48;15.52;;;6.95;;
72949;SDS011;61101;45.710;9.590;2022-07-23T01:09:13;13.63;;;6.40;;
72949;SDS011;61101;45.710;9.590;2022-07-23T01:11:39;14.88;;;6.72;;
72949;SDS011;61101;45.710;9.590;2022-07-23T01:14:15;11.55;;;6.50;;
72949;SDS011;61101;45.710;9.590;2022-07-23T01:16:42;15.50;;;6.68;;
72949;SDS011;61101;45.710;9.590;2022-07-23T01:19:08;10.13;;;6.28;;
72949;SDS011;61101;45.710;9.590;2022-07-23T01:21:37;11.07;;;6.55;;
72949;SDS011;61101;45.710;9.590;2022-07-23T01:24:03;11.48;;;6.15;;
72949;SDS011;61101;45.710;9.590;2022-07-23T01:26:29;11.57;;;6.75;;
72949;SDS011;61101;45.710;9.590;2022-07-23T01:28:54;14.20;;;6.57;;
72949;SDS011;61101;45.710;9.590;2022-07-23T01:31:19;13.63;;;6.22;;
72949;SDS011;61101;45.710;9.590;2022-07-23T01:33:45;11.88;;;6.78;;
72949;SDS011;61101;45.710;9.590;2022-07-23T01:36:10;13.40;;;6.73;;
72949;SDS011;61101;45.710;9.590;2022-07-23T01:38:36;12.40;;;6.53;;
72949;SDS011;61101;45.710;9.590;2022-07-23T01:41:01;10.77;;;6.63;;
72949;SDS011;61101;45.710;9.590;2022-07-23T01:43:26;13.00;;;7.05;;
72949;SDS011;61101;45.710;9.590;2022-07-23T01:45:52;12.95;;;6.82;;
72949;SDS011;61101;45.710;9.590;2022-07-23T01:48:17;11.95;;;6.07;;
72949;SDS011;61101;45.710;9.590;2022-07-23T01:50:42;14.25;;;6.25;;
72949;SDS011;61101;45.710;9.590;2022-07-23T01:53:07;11.90;;;6.47;;
72949;SDS011;61101;45.710;9.590;2022-07-23T01:55:33;10.68;;;6.07;;
72949;SDS011;61101;45.710;9.590;2022-07-23T01:57:58;10.35;;;6.22;;
72949;SDS011;61101;45.710;9.590;2022-07-23T02:00:24;9.15;;;5.53;;
72949;SDS011;61101;45.710;9.590;2022-07-23T02:02:49;9.88;;;5.53;;
72949;SDS011;61101;45.710;9.590;2022-07-23T02:05:14;15.03;;;5.50;;
72949;SDS011;61101;45.710;9.590;2022-07-23T02:07:40;12.43;;;6.40;;
72949;SDS011;61101;45.710;9.590;2022-07-23T02:10:05;15.35;;;5.85;;
72949;SDS011;61101;45.710;9.590;2022-07-23T02:12:31;12.68;;;6.28;;
72949;SDS011;61101;45.710;9.590;2022-07-23T02:14:56;9.77;;;5.63;;
72949;SDS011;61101;45.710;9.590;2022-07-23T02:17:22;12.40;;;5.72;;
72949;SDS011;61101;45.710;9.590;2022-07-23T02:19:47;9.97;;;5.70;;
72949;SDS011;61101;45.710;9.590;2022-07-23T02:22:12;13.30;;;5.45;;
72949;SDS011;61101;45.710;9.590;2022-07-23T02:24:37;12.15;;;5.30;;
72949;SDS011;61101;45.710;9.590;2022-07-23T02:27:03;11.50;;;5.00;;
72949;SDS011;61101;45.710;9.590;2022-07-23T02:29:28;7.37;;;4.63;;
72949;SDS011;61101;45.710;9.590;2022-07-23T02:31:53;10.50;;;5.07;;
72949;SDS011;61101;45.710;9.590;2022-07-23T02:34:18;13.70;;;4.97;;
72949;SDS011;61101;45.710;9.590;2022-07-23T02:36:44;12.40;;;5.22;;
72949;SDS011;61101;45.710;9.590;2022-07-23T02:39:09;10.90;;;5.57;;
72949;SDS011;61101;45.710;9.590;2022-07-23T02:41:35;13.10;;;6.43;;
72949;SDS011;61101;45.710;9.590;2022-07-23T02:44:00;12.55;;;6.57;;
72949;SDS011;61101;45.710;9.590;2022-07-23T02:46:26;11.70;;;5.50;;
72949;SDS011;61101;45.710;9.590;2022-07-23T02:48:51;11.32;;;5.50;;
72949;SDS011;61101;45.710;9.590;2022-07-23T02:51:16;10.82;;;6.07;;
72949;SDS011;61101;45.710;9.590;2022-07-23T02:53:42;13.32;;;6.05;;
72949;SDS011;61101;45.710;9.590;2022-07-23T02:56:07;10.40;;;6.05;;
72949;SDS011;61101;45.710;9.590;2022-07-23T02:58:32;16.13;;;5.68;;
72949;SDS011;61101;45.710;9.590;2022-07-23T03:00:57;10.85;;;5.95;;
72949;SDS011;61101;45.710;9.590;2022-07-23T03:03:23;10.32;;;6.13;;
72949;SDS011;61101;45.710;9.590;2022-07-23T03:05:48;12.55;;;6.85;;
72949;SDS011;61101;45.710;9.590;2022-07-23T03:08:13;10.25;;;5.65;;
72949;SDS011;61101;45.710;9.590;2022-07-23T03:10:39;10.63;;;5.30;;
72949;SDS011;61101;45.710;9.590;2022-07-23T03:13:04;8.95;;;5.10;;
72949;SDS011;61101;45.710;9.590;2022-07-23T03:15:29;10.93;;;5.15;;
72949;SDS011;61101;45.710;9.590;2022-07-23T03:17:55;10.90;;;5.07;;
72949;SDS011;61101;45.710;9.590;2022-07-23T03:20:20;10.07;;;4.50;;
72949;SDS011;61101;45.710;9.590;2022-07-23T03:22:45;7.35;;;4.60;;
72949;SDS011;61101;45.710;9.590;2022-07-23T03:25:11;11.30;;;4.38;;
72949;SDS011;61101;45.710;9.590;2022-07-23T03:27:36;6.90;;;3.85;;
72949;SDS011;61101;45.710;9.590;2022-07-23T03:30:02;9.75;;;4.10;;
72949;SDS011;61101;45.710;9.590;2022-07-23T03:32:27;11.68;;;4.45;;
72949;SDS011;61101;45.710;9.590;2022-07-23T03:34:53;7.88;;;3.33;;
72949;SDS011;61101;45.710;9.590;2022-07-23T03:37:18;8.75;;;3.45;;
72949;SDS011;61101;45.710;9.590;2022-07-23T03:39:43;7.05;;;3.42;;
72949;SDS011;61101;45.710;9.590;2022-07-23T03:42:09;7.43;;;3.40;;
72949;SDS011;61101;45.710;9.590;2022-07-23T03:44:34;8.00;;;3.20;;
72949;SDS011;61101;45.710;9.590;2022-07-23T03:47:02;9.68;;;2.92;;
72949;SDS011;61101;45.710;9.590;2022-07-23T03:49:27;8.75;;;2.75;;
72949;SDS011;61101;45.710;9.590;2022-07-23T03:51:52;7.95;;;2.67;;
72949;SDS011;61101;45.710;9.590;2022-07-23T03:54:18;7.03;;;2.50;;
72949;SDS011;61101;45.710;9.590;2022-07-23T03:56:43;7.03;;;2.40;;
72949;SDS011;61101;45.710;9.590;2022-07-23T03:59:09;9.33;;;2.70;;
72949;SDS011;61101;45.710;9.590;2022-07-23T04:01:34;7.70;;;3.08;;
72949;SDS011;61101;45.710;9.590;2022-07-23T04:03:59;10.07;;;2.72;;
72949;SDS011;61101;45.710;9.590;2022-07-23T04:06:25;7.75;;;2.75;;
72949;SDS011;61101;45.710;9.590;2022-07-23T04:08:50;12.02;;;2.75;;
72949;SDS011;61101;45.710;9.590;2022-07-23T04:11:15;8.88;;;3.03;;
72949;SDS011;61101;45.710;9.590;2022-07-23T04:13:41;10.05;;;2.47;;
72949;SDS011;61101;45.710;9.590;2022-07-23T04:16:06;9.27;;;2.78;;
72949;SDS011;61101;45.710;9.590;2022-07-23T04:18:31;7.40;;;2.92;;
72949;SDS011;61101;45.710;9.590;2022-07-23T04:20:57;11.98;;;2.80;;
72949;SDS011;61101;45.710;9.590;2022-07-23T04:23:22;7.13;;;2.65;;
72949;SDS011;61101;45.710;9.590;2022-07-23T04:25:47;11.40;;;2.60;;
72949;SDS011;61101;45.710;9.590;2022-07-23T04:28:12;9.07;;;2.75;;
72949;SDS011;61101;45.710;9.590;2022-07-23T04:30:38;7.20;;;2.87;;
72949;SDS011;61101;45.710;9.590;2022-07-23T04:33:03;7.60;;;2.30;;
72949;SDS011;61101;45.710;9.590;2022-07-23T04:37:56;5.22;;;2.35;;
72949;SDS011;61101;45.710;9.590;2022-07-23T04:40:22;6.53;;;2.60;;
72949;SDS011;61101;45.710;9.590;2022-07-23T04:42:47;6.68;;;2.47;;
72949;SDS011;61101;45.710;9.590;2022-07-23T04:45:12;12.07;;;2.80;;
72949;SDS011;61101;45.710;9.590;2022-07-23T04:47:37;9.13;;;2.70;;
72949;SDS011;61101;45.710;9.590;2022-07-23T04:50:03;8.98;;;3.00;;
72949;SDS011;61101;45.710;9.590;2022-07-23T04:52:28;9.63;;;2.85;;
72949;SDS011;61101;45.710;9.590;2022-07-23T04:54:53;12.75;;;2.90;;
72949;SDS011;61101;45.710;9.590;2022-07-23T04:57:19;10.30;;;3.30;;
72949;SDS011;61101;45.710;9.590;2022-07-23T04:59:44;17.90;;;2.77;;
72949;SDS011;61101;45.710;9.590;2022-07-23T05:02:09;9.18;;;2.63;;
72949;SDS011;61101;45.710;9.590;2022-07-23T05:04:35;8.45;;;2.30;;
72949;SDS011;61101;45.710;9.590;2022-07-23T05:07:00;7.07;;;2.33;;
72949;SDS011;61101;45.710;9.590;2022-07-23T05:09:25;10.30;;;2.45;;
72949;SDS011;61101;45.710;9.590;2022-07-23T05:11:51;11.20;;;2.45;;
72949;SDS011;61101;45.710;9.590;2022-07-23T05:14:16;7.35;;;2.45;;
72949;SDS011;61101;45.710;9.590;2022-07-23T05:16:41;6.90;;;2.60;;
72949;SDS011;61101;45.710;9.590;2022-07-23T05:19:07;9.05;;;2.95;;
72949;SDS011;61101;45.710;9.590;2022-07-23T05:21:32;8.05;;;2.50;;
72949;SDS011;61101;45.710;9.590;2022-07-23T05:23:57;15.48;;;2.83;;
72949;SDS011;61101;45.710;9.590;2022-07-23T05:26:23;7.55;;;2.50;;
72949;SDS011;61101;45.710;9.590;2022-07-23T05:28:49;8.00;;;2.50;;
72949;SDS011;61101;45.710;9.590;2022-07-23T05:31:14;7.22;;;2.70;;
72949;SDS011;61101;45.710;9.590;2022-07-23T05:33:39;5.10;;;2.30;;
72949;SDS011;61101;45.710;9.590;2022-07-23T05:36:05;8.57;;;2.50;;
72949;SDS011;61101;45.710;9.590;2022-07-23T05:38:31;13.20;;;2.65;;
72949;SDS011;61101;45.710;9.590;2022-07-23T05:40:56;6.97;;;2.47;;
72949;SDS011;61101;45.710;9.590;2022-07-23T05:43:22;7.43;;;2.63;;
72949;SDS011;61101;45.710;9.590;2022-07-23T05:45:47;12.35;;;3.05;;
72949;SDS011;61101;45.710;9.590;2022-07-23T05:48:12;14.05;;;2.75;;
72949;SDS011;61101;45.710;9.590;2022-07-23T05:50:38;10.45;;;2.53;;
72949;SDS011;61101;45.710;9.590;2022-07-23T05:53:03;8.82;;;2.42;;
72949;SDS011;61101;45.710;9.590;2022-07-23T05:55:29;14.63;;;2.92;;
72949;SDS011;61101;45.710;9.590;2022-07-23T05:57:56;8.15;;;2.42;;
72949;SDS011;61101;45.710;9.590;2022-07-23T06:00:22;7.65;;;2.80;;
72949;SDS011;61101;45.710;9.590;2022-07-23T06:02:47;10.02;;;2.60;;
72949;SDS011;61101;45.710;9.590;2022-07-23T06:05:12;8.63;;;2.25;;
72949;SDS011;61101;45.710;9.590;2022-07-23T06:07:37;8.30;;;2.80;;
72949;SDS011;61101;45.710;9.590;2022-07-23T06:10:03;7.75;;;2.20;;
72949;SDS011;61101;45.710;9.590;2022-07-23T06:12:29;5.85;;;2.22;;
72949;SDS011;61101;45.710;9.590;2022-07-23T06:14:54;8.65;;;2.53;;
72949;SDS011;61101;45.710;9.590;2022-07-23T06:17:20;12.43;;;2.65;;
72949;SDS011;61101;45.710;9.590;2022-07-23T06:19:45;9.88;;;2.60;;
72949;SDS011;61101;45.710;9.590;2022-07-23T06:22:10;6.57;;;2.45;;
72949;SDS011;61101;45.710;9.590;2022-07-23T06:24:36;12.67;;;2.43;;
72949;SDS011;61101;45.710;9.590;2022-07-23T06:27:01;7.13;;;2.40;;
72949;SDS011;61101;45.710;9.590;2022-07-23T06:29:26;9.57;;;2.58;;
72949;SDS011;61101;45.710;9.590;2022-07-23T06:31:52;11.18;;;3.00;;
72949;SDS011;61101;45.710;9.590;2022-07-23T06:34:17;11.88;;;2.40;;
72949;SDS011;61101;45.710;9.590;2022-07-23T06:36:42;16.33;;;2.60;;
72949;SDS011;61101;45.710;9.590;2022-07-23T06:39:07;8.73;;;2.50;;
72949;SDS011;61101;45.710;9.590;2022-07-23T06:41:33;7.43;;;2.30;;
72949;SDS011;61101;45.710;9.590;2022-07-23T06:43:58;7.93;;;2.20;;
72949;SDS011;61101;45.710;9.590;2022-07-23T06:46:23;8.20;;;2.22;;
72949;SDS011;61101;45.710;9.590;2022-07-23T06:48:50;6.65;;;2.58;;
72949;SDS011;61101;45.710;9.590;2022-07-23T06:51:15;6.68;;;2.63;;
72949;SDS011;61101;45.710;9.590;2022-07-23T06:53:40;6.30;;;1.80;;
72949;SDS011;61101;45.710;9.590;2022-07-23T06:56:06;9.05;;;2.25;;
72949;SDS011;61101;45.710;9.590;2022-07-23T06:58:31;5.68;;;2.30;;
72949;SDS011;61101;45.710;9.590;2022-07-23T07:00:57;7.40;;;2.33;;
72949;SDS011;61101;45.710;9.590;2022-07-23T07:03:22;5.78;;;2.38;;
72949;SDS011;61101;45.710;9.590;2022-07-23T07:05:47;7.53;;;2.47;;
72949;SDS011;61101;45.710;9.590;2022-07-23T07:08:13;6.38;;;2.60;;
72949;SDS011;61101;45.710;9.590;2022-07-23T07:10:38;8.63;;;2.78;;
72949;SDS011;61101;45.710;9.590;2022-07-23T07:13:04;6.78;;;2.38;;
72949;SDS011;61101;45.710;9.590;2022-07-23T07:15:29;14.73;;;2.97;;
72949;SDS011;61101;45.710;9.590;2022-07-23T07:17:54;7.97;;;2.70;;
72949;SDS011;61101;45.710;9.590;2022-07-23T07:20:20;25.60;;;4.50;;
72949;SDS011;61101;45.710;9.590;2022-07-23T07:22:45;18.92;;;3.38;;
72949;SDS011;61101;45.710;9.590;2022-07-23T07:25:10;10.77;;;2.95;;
72949;SDS011;61101;45.710;9.590;2022-07-23T07:27:36;14.80;;;3.70;;
72949;SDS011;61101;45.710;9.590;2022-07-23T07:30:02;46.50;;;5.07;;
72949;SDS011;61101;45.710;9.590;2022-07-23T07:32:27;13.77;;;3.05;;
72949;SDS011;61101;45.710;9.590;2022-07-23T07:34:53;279.90;;;28.35;;
72949;SDS011;61101;45.710;9.590;2022-07-23T07:37:18;195.63;;;20.30;;
72949;SDS011;61101;45.710;9.590;2022-07-23T07:39:43;85.75;;;12.63;;
72949;SDS011;61101;45.710;9.590;2022-07-23T07:42:09;20.88;;;4.93;;
72949;SDS011;61101;45.710;9.590;2022-07-23T07:44:34;8.27;;;3.20;;
72949;SDS011;61101;45.710;9.590;2022-07-23T07:47:00;9.03;;;3.30;;
72949;SDS011;61101;45.710;9.590;2022-07-23T07:49:25;9.50;;;2.85;;
72949;SDS011;61101;45.710;9.590;2022-07-23T07:51:50;9.10;;;2.65;;
72949;SDS011;61101;45.710;9.590;2022-07-23T07:54:16;7.67;;;2.70;;
72949;SDS011;61101;45.710;9.590;2022-07-23T07:56:41;9.80;;;2.75;;
72949;SDS011;61101;45.710;9.590;2022-07-23T07:59:06;8.02;;;3.55;;
72949;SDS011;61101;45.710;9.590;2022-07-23T08:01:32;7.97;;;2.60;;
72949;SDS011;61101;45.710;9.590;2022-07-23T08:03:57;9.93;;;3.38;;
72949;SDS011;61101;45.710;9.590;2022-07-23T08:06:22;8.90;;;3.38;;
72949;SDS011;61101;45.710;9.590;2022-07-23T08:08:48;7.80;;;4.30;;
72949;SDS011;61101;45.710;9.590;2022-07-23T08:11:13;13.27;;;4.10;;
72949;SDS011;61101;45.710;9.590;2022-07-23T08:13:38;12.10;;;3.65;;
72949;SDS011;61101;45.710;9.590;2022-07-23T08:16:04;8.30;;;3.13;;
72949;SDS011;61101;45.710;9.590;2022-07-23T08:18:29;7.15;;;3.70;;
72949;SDS011;61101;45.710;9.590;2022-07-23T08:20:54;9.37;;;2.90;;
72949;SDS011;61101;45.710;9.590;2022-07-23T08:23:20;8.80;;;4.15;;
72949;SDS011;61101;45.710;9.590;2022-07-23T08:25:46;11.52;;;5.80;;
72949;SDS011;61101;45.710;9.590;2022-07-23T08:28:12;10.48;;;6.07;;
72949;SDS011;61101;45.710;9.590;2022-07-23T08:30:38;10.52;;;6.43;;
72949;SDS011;61101;45.710;9.590;2022-07-23T08:33:05;11.10;;;6.13;;
72949;SDS011;61101;45.710;9.590;2022-07-23T08:37:57;12.65;;;6.50;;
72949;SDS011;61101;45.710;9.590;2022-07-23T08:40:24;11.15;;;6.82;;
72949;SDS011;61101;45.710;9.590;2022-07-23T08:42:50;14.05;;;7.05;;
72949;SDS011;61101;45.710;9.590;2022-07-23T08:45:19;15.38;;;7.22;;
72949;SDS011;61101;45.710;9.590;2022-07-23T08:47:55;15.23;;;7.35;;
72949;SDS011;61101;45.710;9.590;2022-07-23T08:50:21;14.02;;;7.68;;
72949;SDS011;61101;45.710;9.590;2022-07-23T08:52:48;13.40;;;6.60;;
72949;SDS011;61101;45.710;9.590;2022-07-23T08:55:17;16.33;;;5.95;;
72949;SDS011;61101;45.710;9.590;2022-07-23T08:57:43;11.32;;;5.80;;
72949;SDS011;61101;45.710;9.590;2022-07-23T09:00:08;12.55;;;6.20;;
72949;SDS011;61101;45.710;9.590;2022-07-23T09:02:43;10.38;;;6.15;;
72949;SDS011;61101;45.710;9.590;2022-07-23T09:05:10;11.38;;;6.68;;
72949;SDS011;61101;45.710;9.590;2022-07-23T09:07:38;15.43;;;6.85;;
72949;SDS011;61101;45.710;9.590;2022-07-23T09:10:23;11.68;;;5.40;;
72949;SDS011;61101;45.710;9.590;2022-07-23T09:12:48;13.65;;;7.25;;
72949;SDS011;61101;45.710;9.590;2022-07-23T09:15:14;12.13;;;6.72;;
72949;SDS011;61101;45.710;9.590;2022-07-23T09:17:40;11.85;;;6.38;;
72949;SDS011;61101;45.710;9.590;2022-07-23T09:20:13;14.43;;;7.38;;
72949;SDS011;61101;45.710;9.590;2022-07-23T09:22:39;10.35;;;5.53;;
72949;SDS011;61101;45.710;9.590;2022-07-23T09:25:09;14.52;;;6.43;;
72949;SDS011;61101;45.710;9.590;2022-07-23T09:27:54;13.40;;;5.82;;
72949;SDS011;61101;45.710;9.590;2022-07-23T09:30:23;16.77;;;5.53;;
72949;SDS011;61101;45.710;9.590;2022-07-23T09:35:43;12.85;;;5.50;;
72949;SDS011;61101;45.710;9.590;2022-07-23T09:38:08;14.32;;;6.22;;
72949;SDS011;61101;45.710;9.590;2022-07-23T09:40:34;14.90;;;6.57;;
72949;SDS011;61101;45.710;9.590;2022-07-23T09:42:59;8.65;;;5.03;;
72949;SDS011;61101;45.710;9.590;2022-07-23T09:45:25;9.77;;;5.18;;
72949;SDS011;61101;45.710;9.590;2022-07-23T09:47:50;12.02;;;6.47;;
72949;SDS011;61101;45.710;9.590;2022-07-23T09:50:16;11.53;;;6.30;;
72949;SDS011;61101;45.710;9.590;2022-07-23T09:52:46;12.63;;;6.55;;
72949;SDS011;61101;45.710;9.590;2022-07-23T09:55:13;10.15;;;5.63;;
72949;SDS011;61101;45.710;9.590;2022-07-23T09:57:38;13.35;;;6.47;;
72949;SDS011;61101;45.710;9.590;2022-07-23T10:00:05;10.40;;;6.38;;
72949;SDS011;61101;45.710;9.590;2022-07-23T10:02:32;14.95;;;5.68;;
72949;SDS011;61101;45.710;9.590;2022-07-23T10:04:58;11.25;;;5.05;;
72949;SDS011;61101;45.710;9.590;2022-07-23T10:07:23;10.45;;;5.03;;
72949;SDS011;61101;45.710;9.590;2022-07-23T10:09:51;10.85;;;5.28;;
72949;SDS011;61101;45.710;9.590;2022-07-23T10:12:18;14.00;;;5.53;;
72949;SDS011;61101;45.710;9.590;2022-07-23T10:14:58;11.23;;;5.10;;
72949;SDS011;61101;45.710;9.590;2022-07-23T10:17:25;12.38;;;5.10;;
72949;SDS011;61101;45.710;9.590;2022-07-23T10:19:50;13.35;;;4.65;;
72949;SDS011;61101;45.710;9.590;2022-07-23T10:22:29;12.18;;;5.50;;
72949;SDS011;61101;45.710;9.590;2022-07-23T10:38:10;9.38;;;5.28;;
72949;SDS011;61101;45.710;9.590;2022-07-23T10:40:36;36.45;;;6.07;;
72949;SDS011;61101;45.710;9.590;2022-07-23T10:43:01;14.13;;;4.95;;
72949;SDS011;61101;45.710;9.590;2022-07-23T10:45:36;39.75;;;5.93;;
72949;SDS011;61101;45.710;9.590;2022-07-23T10:48:15;34.42;;;6.43;;
72949;SDS011;61101;45.710;9.590;2022-07-23T10:50:40;17.10;;;5.35;;
72949;SDS011;61101;45.710;9.590;2022-07-23T10:57:59;9.30;;;4.80;;
72949;SDS011;61101;45.710;9.590;2022-07-23T11:00:28;9.00;;;4.50;;
72949;SDS011;61101;45.710;9.590;2022-07-23T11:02:55;18.65;;;5.90;;
72949;SDS011;61101;45.710;9.590;2022-07-23T11:05:21;14.43;;;5.72;;
72949;SDS011;61101;45.710;9.590;2022-07-23T11:10:37;9.68;;;4.85;;
72949;SDS011;61101;45.710;9.590;2022-07-23T11:32:06;12.45;;;4.97;;
72949;SDS011;61101;45.710;9.590;2022-07-23T11:36:58;10.43;;;4.93;;
72949;SDS011;61101;45.710;9.590;2022-07-23T11:39:25;12.75;;;5.60;;
72949;SDS011;61101;45.710;9.590;2022-07-23T11:41:51;12.25;;;4.70;;
72949;SDS011;61101;45.710;9.590;2022-07-23T11:46:57;10.18;;;5.38;;
72949;SDS011;61101;45.710;9.590;2022-07-23T11:49:23;8.88;;;4.78;;
72949;SDS011;61101;45.710;9.590;2022-07-23T11:54:33;9.15;;;4.40;;
72949;SDS011;61101;45.710;9.590;2022-07-23T11:57:01;11.23;;;4.68;;
72949;SDS011;61101;45.710;9.590;2022-07-23T11:59:29;34.38;;;5.78;;
72949;SDS011;61101;45.710;9.590;2022-07-23T12:01:59;10.10;;;5.80;;
72949;SDS011;61101;45.710;9.590;2022-07-23T12:04:41;10.13;;;5.13;;
72949;SDS011;61101;45.710;9.590;2022-07-23T12:07:27;13.10;;;5.13;;
72949;SDS011;61101;45.710;9.590;2022-07-23T12:09:53;12.00;;;5.00;;
72949;SDS011;61101;45.710;9.590;2022-07-23T12:12:19;13.30;;;4.68;;
72949;SDS011;61101;45.710;9.590;2022-07-23T12:14:50;9.25;;;4.72;;
72949;SDS011;61101;45.710;9.590;2022-07-23T12:17:15;13.32;;;5.43;;
72949;SDS011;61101;45.710;9.590;2022-07-23T12:19:41;9.95;;;4.85;;
72949;SDS011;61101;45.710;9.590;2022-07-23T12:22:06;11.82;;;5.85;;
72949;SDS011;61101;45.710;9.590;2022-07-23T12:24:51;11.65;;;4.97;;
72949;SDS011;61101;45.710;9.590;2022-07-23T12:27:19;11.10;;;5.03;;
72949;SDS011;61101;45.710;9.590;2022-07-23T12:29:44;16.25;;;5.10;;
72949;SDS011;61101;45.710;9.590;2022-07-23T12:32:17;13.48;;;5.35;;
72949;SDS011;61101;45.710;9.590;2022-07-23T12:34:43;11.65;;;5.22;;
72949;SDS011;61101;45.710;9.590;2022-07-23T12:37:23;32.70;;;6.72;;
72949;SDS011;61101;45.710;9.590;2022-07-23T12:39:49;12.77;;;5.30;;
72949;SDS011;61101;45.710;9.590;2022-07-23T12:42:14;11.87;;;5.60;;
72949;SDS011;61101;45.710;9.590;2022-07-23T12:44:39;19.73;;;5.55;;
72949;SDS011;61101;45.710;9.590;2022-07-23T12:47:05;15.17;;;5.70;;
72949;SDS011;61101;45.710;9.590;2022-07-23T12:49:30;10.27;;;4.80;;
72949;SDS011;61101;45.710;9.590;2022-07-23T12:51:55;9.98;;;6.10;;
72949;SDS011;61101;45.710;9.590;2022-07-23T12:54:26;11.48;;;5.20;;
72949;SDS011;61101;45.710;9.590;2022-07-23T12:56:52;11.20;;;5.22;;
72949;SDS011;61101;45.710;9.590;2022-07-23T12:59:17;22.65;;;5.47;;
72949;SDS011;61101;45.710;9.590;2022-07-23T13:01:43;19.42;;;5.93;;
72949;SDS011;61101;45.710;9.590;2022-07-23T13:09:05;8.35;;;4.70;;
72949;SDS011;61101;45.710;9.590;2022-07-23T13:11:31;9.02;;;5.40;;
72949;SDS011;61101;45.710;9.590;2022-07-23T13:13:56;11.55;;;5.00;;
72949;SDS011;61101;45.710;9.590;2022-07-23T13:16:22;9.60;;;5.30;;
72949;SDS011;61101;45.710;9.590;2022-07-23T13:18:48;14.65;;;5.15;;
72949;SDS011;61101;45.710;9.590;2022-07-23T13:21:13;14.57;;;5.20;;
72949;SDS011;61101;45.710;9.590;2022-07-23T13:23:40;9.85;;;4.93;;
72949;SDS011;61101;45.710;9.590;2022-07-23T13:26:06;10.35;;;5.18;;
72949;SDS011;61101;45.710;9.590;2022-07-23T13:28:32;13.55;;;5.45;;
72949;SDS011;61101;45.710;9.590;2022-07-23T13:30:57;11.00;;;5.22;;
72949;SDS011;61101;45.710;9.590;2022-07-23T13:33:23;10.27;;;5.80;;
72949;SDS011;61101;45.710;9.590;2022-07-23T13:35:49;12.27;;;4.95;;
72949;SDS011;61101;45.710;9.590;2022-07-23T13:38:14;10.85;;;5.30;;
72949;SDS011;61101;45.710;9.590;2022-07-23T13:40:40;12.98;;;4.85;;
72949;SDS011;61101;45.710;9.590;2022-07-23T13:43:08;18.35;;;5.65;;
72949;SDS011;61101;45.710;9.590;2022-07-23T13:45:33;10.10;;;4.70;;
72949;SDS011;61101;45.710;9.590;2022-07-23T13:47:59;9.85;;;6.03;;
72949;SDS011;61101;45.710;9.590;2022-07-23T13:50:24;12.25;;;5.22;;
72949;SDS011;61101;45.710;9.590;2022-07-23T13:52:50;12.80;;;5.30;;
72949;SDS011;61101;45.710;9.590;2022-07-23T13:55:15;10.90;;;5.33;;
72949;SDS011;61101;45.710;9.590;2022-07-23T13:57:40;19.98;;;5.95;;
72949;SDS011;61101;45.710;9.590;2022-07-23T14:00:06;12.70;;;5.40;;
72949;SDS011;61101;45.710;9.590;2022-07-23T14:02:33;10.52;;;5.60;;
72949;SDS011;61101;45.710;9.590;2022-07-23T14:04:58;10.48;;;5.57;;
72949;SDS011;61101;45.710;9.590;2022-07-23T14:07:23;11.85;;;5.63;;
72949;SDS011;61101;45.710;9.590;2022-07-23T14:09:48;10.10;;;5.72;;
72949;SDS011;61101;45.710;9.590;2022-07-23T14:12:14;13.07;;;6.70;;
72949;SDS011;61101;45.710;9.590;2022-07-23T14:14:39;12.57;;;5.93;;
72949;SDS011;61101;45.710;9.590;2022-07-23T14:17:04;10.10;;;5.53;;
72949;SDS011;61101;45.710;9.590;2022-07-23T14:19:30;11.88;;;5.60;;
72949;SDS011;61101;45.710;9.590;2022-07-23T14:21:55;18.57;;;5.83;;
72949;SDS011;61101;45.710;9.590;2022-07-23T14:24:20;9.95;;;5.25;;
72949;SDS011;61101;45.710;9.590;2022-07-23T14:26:46;9.90;;;5.88;;
72949;SDS011;61101;45.710;9.590;2022-07-23T14:29:11;11.27;;;6.25;;
72949;SDS011;61101;45.710;9.590;2022-07-23T14:31:36;10.95;;;5.82;;
72949;SDS011;61101;45.710;9.590;2022-07-23T14:34:02;15.68;;;6.15;;
72949;SDS011;61101;45.710;9.590;2022-07-23T14:36:27;12.43;;;5.90;;
72949;SDS011;61101;45.710;9.590;2022-07-23T14:38:52;12.30;;;6.65;;
72949;SDS011;61101;45.710;9.590;2022-07-23T14:41:18;10.70;;;5.60;;
72949;SDS011;61101;45.710;9.590;2022-07-23T14:43:43;9.25;;;5.57;;
72949;SDS011;61101;45.710;9.590;2022-07-23T14:46:09;10.75;;;6.50;;
72949;SDS011;61101;45.710;9.590;2022-07-23T14:48:34;11.77;;;6.95;;
72949;SDS011;61101;45.710;9.590;2022-07-23T14:51:01;11.35;;;6.70;;
72949;SDS011;61101;45.710;9.590;2022-07-23T14:53:26;11.55;;;7.03;;
72949;SDS011;61101;45.710;9.590;2022-07-23T14:55:51;11.43;;;5.78;;
72949;SDS011;61101;45.710;9.590;2022-07-23T14:58:17;16.63;;;6.13;;
72949;SDS011;61101;45.710;9.590;2022-07-23T15:00:42;15.20;;;7.25;;
72949;SDS011;61101;45.710;9.590;2022-07-23T15:03:08;12.80;;;5.93;;
72949;SDS011;61101;45.710;9.590;2022-07-23T15:05:33;9.43;;;6.13;;
72949;SDS011;61101;45.710;9.590;2022-07-23T15:07:58;10.03;;;5.80;;
72949;SDS011;61101;45.710;9.590;2022-07-23T15:10:24;13.27;;;6.38;;
72949;SDS011;61101;45.710;9.590;2022-07-23T15:12:49;12.52;;;6.05;;
72949;SDS011;61101;45.710;9.590;2022-07-23T15:15:14;12.13;;;6.40;;
72949;SDS011;61101;45.710;9.590;2022-07-23T15:17:39;9.73;;;6.25;;
72949;SDS011;61101;45.710;9.590;2022-07-23T15:20:05;12.75;;;6.18;;
72949;SDS011;61101;45.710;9.590;2022-07-23T15:22:30;15.48;;;6.78;;
72949;SDS011;61101;45.710;9.590;2022-07-23T15:24:56;10.52;;;6.28;;
72949;SDS011;61101;45.710;9.590;2022-07-23T15:27:21;12.65;;;6.60;;
72949;SDS011;61101;45.710;9.590;2022-07-23T15:29:47;11.20;;;7.00;;
72949;SDS011;61101;45.710;9.590;2022-07-23T15:32:12;13.90;;;6.65;;